createdAt,value
2018-09-04T00:00:01.862Z,37.10
2018-09-04T00:02:30.729Z,39.47
2018-09-04T00:04:59.678Z,36.57
2018-09-04T00:07:28.561Z,37.67
2018-09-04T00:09:57.440Z,37.90
2018-09-04T00:12:26.307Z,37.07
2018-09-04T00:14:55.190Z,37.57
2018-09-04T00:17:24.035Z,38.10
2018-09-04T00:19:59.206Z,35.10
2018-09-04T00:22:28.132Z,36.53
2018-09-04T00:24:57.096Z,38.03
2018-09-04T00:27:26.157Z,38.23
2018-09-04T00:29:55.095Z,37.43
2018-09-04T00:32:24.022Z,38.63
2018-09-04T00:34:52.858Z,39.23
2018-09-04T00:37:21.776Z,39.33
2018-09-04T00:39:51.172Z,39.20
2018-09-04T00:42:20.098Z,40.57
2018-09-04T00:44:49.001Z,41.23
2018-09-04T00:47:17.886Z,39.80
2018-09-04T00:49:46.772Z,38.27
2018-09-04T00:52:15.614Z,39.10
2018-09-04T00:54:44.426Z,38.67
2018-09-04T00:57:13.321Z,38.80
2018-09-04T00:59:42.171Z,38.50
2018-09-04T01:02:13.831Z,39.97
2018-09-04T01:04:42.847Z,39.47
2018-09-04T01:07:11.716Z,38.73
2018-09-04T01:09:40.591Z,36.93
2018-09-04T01:12:09.480Z,41.57
2018-09-04T01:14:38.333Z,39.27
2018-09-04T01:17:07.247Z,36.80
2018-09-04T01:19:36.065Z,38.40
2018-09-04T01:22:04.926Z,41.63
2018-09-04T01:24:34.292Z,40.13
2018-09-04T01:27:03.142Z,40.80
2018-09-04T01:29:32.016Z,41.37
2018-09-04T01:32:00.870Z,40.67
2018-09-04T01:34:29.720Z,40.57
2018-09-04T01:36:58.521Z,40.87
2018-09-04T01:39:27.320Z,41.97
2018-09-04T01:41:56.159Z,40.67
2018-09-04T01:44:25.011Z,41.53
2018-09-04T01:46:53.791Z,39.47
2018-09-04T01:49:22.697Z,41.57
2018-09-04T01:51:51.601Z,39.53
2018-09-04T01:54:20.416Z,42.17
2018-09-04T01:56:49.284Z,40.83
2018-09-04T01:59:18.059Z,42.97
2018-09-04T02:01:47.009Z,42.10
2018-09-04T02:04:15.876Z,42.20
2018-09-04T02:06:44.726Z,41.47
2018-09-04T02:09:13.558Z,41.13
2018-09-04T02:11:42.408Z,39.03
2018-09-04T02:14:11.155Z,41.17
2018-09-04T02:16:40.051Z,40.10
2018-09-04T02:19:08.841Z,41.77
2018-09-04T02:21:37.660Z,39.90
2018-09-04T02:24:06.496Z,38.57
2018-09-04T02:26:35.325Z,40.83
2018-09-04T02:29:04.189Z,39.07
2018-09-04T02:31:33.020Z,34.97
2018-09-04T02:34:01.889Z,38.63
2018-09-04T02:36:30.682Z,39.93
2018-09-04T02:38:59.543Z,40.43
2018-09-04T02:41:28.361Z,42.07
2018-09-04T02:43:57.176Z,41.97
2018-09-04T02:46:26.007Z,49.33
2018-09-04T02:48:54.804Z,42.63
2018-09-04T02:51:23.596Z,38.90
2018-09-04T02:53:52.457Z,50.23
2018-09-04T02:56:21.272Z,54.90
2018-09-04T02:58:50.226Z,46.80
2018-09-04T03:01:19.004Z,45.27
2018-09-04T03:03:47.840Z,46.17
2018-09-04T03:06:16.656Z,45.10
2018-09-04T03:08:45.555Z,44.83
2018-09-04T03:11:14.325Z,43.00
2018-09-04T03:13:43.202Z,46.10
2018-09-04T03:16:12.017Z,48.60
2018-09-04T03:18:40.876Z,46.03
2018-09-04T03:21:09.656Z,47.23
2018-09-04T03:23:38.510Z,46.77
2018-09-04T03:26:07.261Z,47.20
2018-09-04T03:28:36.001Z,47.50
2018-09-04T03:31:04.819Z,47.50
2018-09-04T03:33:33.666Z,47.13
2018-09-04T03:36:02.520Z,46.80
2018-09-04T03:38:31.396Z,47.10
2018-09-04T03:41:00.253Z,46.27
2018-09-04T03:43:29.080Z,45.10
2018-09-04T03:45:57.868Z,45.40
2018-09-04T03:48:26.826Z,46.57
2018-09-04T03:50:55.690Z,44.33
2018-09-04T03:53:24.535Z,47.23
2018-09-04T03:55:59.677Z,48.07
2018-09-04T03:58:28.487Z,48.10
2018-09-04T04:00:57.289Z,47.33
2018-09-04T04:03:26.076Z,46.53
2018-09-04T04:05:54.901Z,47.10
2018-09-04T04:08:23.795Z,49.37
2018-09-04T04:10:52.690Z,49.50
2018-09-04T04:13:21.832Z,48.60
2018-09-04T04:15:50.698Z,50.50
2018-09-04T04:18:19.831Z,51.83
2018-09-04T04:20:58.177Z,48.43
2018-09-04T04:23:27.949Z,46.70
2018-09-04T04:25:58.161Z,45.50
2018-09-04T04:28:27.142Z,45.73
2018-09-04T04:30:55.925Z,45.73
2018-09-04T04:33:24.787Z,47.40
2018-09-04T04:35:53.591Z,45.33
2018-09-04T04:38:22.390Z,46.13
2018-09-04T04:40:51.253Z,44.10
2018-09-04T04:43:20.042Z,45.23
2018-09-04T04:45:48.903Z,46.03
2018-09-04T04:48:17.862Z,45.57
2018-09-04T04:50:46.712Z,44.57
2018-09-04T04:53:15.613Z,44.83
2018-09-04T04:55:44.535Z,50.33
2018-09-04T04:58:13.375Z,49.50
2018-09-04T05:00:42.213Z,49.07
2018-09-04T05:03:11.052Z,50.33
2018-09-04T05:05:39.957Z,51.27
2018-09-04T05:08:09.701Z,51.00
2018-09-04T05:10:38.600Z,50.80
2018-09-04T05:13:07.546Z,49.40
2018-09-04T05:15:36.423Z,50.63
2018-09-04T05:18:05.428Z,50.80
2018-09-04T05:20:34.311Z,50.33
2018-09-04T05:23:03.149Z,48.67
2018-09-04T05:25:32.072Z,47.87
2018-09-04T05:28:00.905Z,49.67
2018-09-04T05:30:29.777Z,49.30
2018-09-04T05:33:09.633Z,49.67
2018-09-04T05:35:42.386Z,48.47
2018-09-04T05:38:11.234Z,50.07
2018-09-04T05:40:40.116Z,50.83
2018-09-04T05:43:10.732Z,53.77
2018-09-04T05:45:40.106Z,56.47
2018-09-04T05:48:10.922Z,54.20
2018-09-04T05:50:39.894Z,54.07
2018-09-04T05:53:08.931Z,52.67
2018-09-04T05:55:37.835Z,52.37
2018-09-04T05:58:06.730Z,54.53
2018-09-04T06:00:38.750Z,55.10
2018-09-04T06:03:07.625Z,52.60
2018-09-04T06:05:36.635Z,54.77
2018-09-04T06:08:05.640Z,55.33
2018-09-04T06:10:34.550Z,51.77
2018-09-04T06:13:03.458Z,49.87
2018-09-04T06:15:32.315Z,49.73
2018-09-04T06:18:01.286Z,51.07
2018-09-04T06:20:30.216Z,55.00
2018-09-04T06:22:59.209Z,53.93
2018-09-04T06:25:28.220Z,54.27
2018-09-04T06:27:57.488Z,54.80
2018-09-04T06:30:27.079Z,55.87
2018-09-04T06:32:56.305Z,56.73
2018-09-04T06:35:25.654Z,57.93
2018-09-04T06:37:54.952Z,58.53
2018-09-04T06:40:23.969Z,59.70
2018-09-04T06:42:53.051Z,60.90
2018-09-04T06:45:22.205Z,58.43
2018-09-04T06:47:51.417Z,60.33
2018-09-04T06:50:20.705Z,60.30
2018-09-04T06:52:50.104Z,62.13
2018-09-04T06:55:19.365Z,60.67
2018-09-04T06:57:49.176Z,60.27
2018-09-04T07:00:18.172Z,59.03
2018-09-04T07:02:47.127Z,61.23
2018-09-04T07:05:16.062Z,59.13
2018-09-04T07:07:45.110Z,61.27
2018-09-04T07:10:14.136Z,61.03
2018-09-04T07:12:43.306Z,58.87
2018-09-04T07:15:13.025Z,61.40
2018-09-04T07:17:42.030Z,61.57
2018-09-04T07:20:11.069Z,60.30
2018-09-04T07:22:40.131Z,61.70
2018-09-04T07:25:09.185Z,60.37
2018-09-04T07:27:38.097Z,58.37
2018-09-04T07:30:07.299Z,56.17
2018-09-04T07:32:36.432Z,55.33
2018-09-04T07:35:05.579Z,57.03
2018-09-04T07:37:34.656Z,58.07
2018-09-04T07:40:03.648Z,57.33
2018-09-04T07:42:32.573Z,56.23
2018-09-04T07:45:01.378Z,57.77
2018-09-04T07:47:30.383Z,56.83
2018-09-04T07:49:59.307Z,58.87
2018-09-04T07:52:28.236Z,58.67
2018-09-04T07:54:57.161Z,57.73
2018-09-04T07:57:26.102Z,58.57
2018-09-04T07:59:55.161Z,58.17
2018-09-04T08:02:24.116Z,55.53
2018-09-04T08:04:53.052Z,57.63
2018-09-04T08:07:22.273Z,53.47
2018-09-04T08:09:51.288Z,54.50
2018-09-04T08:12:20.343Z,52.97
2018-09-04T08:14:49.429Z,53.97
2018-09-04T08:17:18.307Z,52.07
2018-09-04T08:19:47.137Z,51.30
2018-09-04T08:22:16.262Z,49.10
2018-09-04T08:24:45.166Z,51.77
2018-09-04T08:27:20.761Z,49.80
2018-09-04T08:29:49.650Z,48.73
2018-09-04T08:32:18.681Z,50.10
2018-09-04T08:34:47.769Z,46.47
2018-09-04T08:37:16.829Z,48.33
2018-09-04T08:39:45.781Z,48.13
2018-09-04T08:42:14.873Z,47.00
2018-09-04T08:44:43.911Z,47.03
2018-09-04T08:47:12.897Z,46.17
2018-09-04T08:49:41.755Z,44.20
2018-09-04T08:52:10.650Z,44.20
2018-09-04T08:54:39.639Z,45.87
2018-09-04T08:57:08.693Z,45.30
2018-09-04T08:59:37.655Z,42.33
2018-09-04T09:02:06.622Z,42.57
2018-09-04T09:04:35.732Z,42.87
2018-09-04T09:07:04.922Z,40.77
2018-09-04T09:09:33.934Z,41.30
2018-09-04T09:12:02.879Z,39.07
2018-09-04T09:14:31.892Z,40.20
2018-09-04T09:17:00.866Z,35.90
2018-09-04T09:19:29.895Z,38.57
2018-09-04T09:21:58.871Z,35.87
2018-09-04T09:24:27.960Z,33.10
2018-09-04T09:26:57.175Z,32.33
2018-09-04T09:29:26.242Z,30.40
2018-09-04T09:31:55.411Z,31.23
2018-09-04T09:34:24.639Z,27.00
2018-09-04T09:36:53.786Z,30.20
2018-09-04T09:39:22.720Z,31.77
2018-09-04T09:41:51.737Z,33.03
2018-09-04T09:44:20.736Z,32.30
2018-09-04T09:46:49.624Z,30.67
2018-09-04T09:49:18.744Z,30.83
2018-09-04T09:51:47.619Z,31.20
2018-09-04T09:54:16.498Z,30.10
2018-09-04T09:56:45.545Z,27.93
2018-09-04T09:59:14.417Z,28.53
2018-09-04T10:01:48.768Z,27.90
2018-09-04T10:04:17.896Z,24.30
2018-09-04T10:06:47.138Z,25.60
2018-09-04T10:09:16.216Z,23.10
2018-09-04T10:11:45.194Z,22.75
2018-09-04T10:14:14.302Z,22.85
2018-09-04T10:16:43.374Z,22.85
2018-09-04T10:19:12.437Z,21.42
2018-09-04T10:21:41.478Z,21.15
2018-09-04T10:24:10.561Z,19.30
2018-09-04T10:26:39.569Z,18.65
2018-09-04T10:29:08.569Z,18.80
2018-09-04T10:31:37.676Z,18.52
2018-09-04T10:34:06.781Z,17.30
2018-09-04T10:36:35.801Z,18.12
2018-09-04T10:39:11.600Z,20.02
2018-09-04T10:41:40.580Z,17.40
2018-09-04T10:44:09.556Z,17.60
2018-09-04T10:46:38.556Z,16.15
2018-09-04T10:49:07.538Z,13.18
2018-09-04T10:51:36.416Z,12.78
2018-09-04T10:54:06.721Z,8.30
2018-09-04T10:56:35.759Z,10.60
2018-09-04T10:59:04.788Z,11.00
2018-09-04T11:01:33.929Z,14.58
2018-09-04T11:04:03.023Z,13.60
2018-09-04T11:06:32.008Z,14.38
2018-09-04T11:09:01.215Z,16.42
2018-09-04T11:11:30.131Z,16.12
2018-09-04T11:13:59.132Z,15.23
2018-09-04T11:16:28.079Z,15.68
2018-09-04T11:18:56.971Z,16.48
2018-09-04T11:21:25.892Z,15.93
2018-09-04T11:23:55.035Z,14.90
2018-09-04T11:26:24.270Z,15.60
2018-09-04T11:28:56.091Z,15.80
2018-09-04T11:31:25.281Z,14.20
2018-09-04T11:33:54.357Z,14.05
2018-09-04T11:36:23.502Z,14.13
2018-09-04T11:38:52.561Z,13.72
2018-09-04T11:41:21.779Z,13.78
2018-09-04T11:43:50.747Z,14.10
2018-09-04T11:46:19.777Z,12.63
2018-09-04T11:48:48.806Z,13.10
2018-09-04T11:51:17.809Z,13.35
2018-09-04T11:53:46.729Z,14.10
2018-09-04T11:56:19.600Z,12.50
2018-09-04T11:58:48.919Z,12.65
2018-09-04T12:01:20.172Z,11.85
2018-09-04T12:03:49.247Z,12.65
2018-09-04T12:06:18.272Z,12.30
2018-09-04T12:08:47.222Z,11.95
2018-09-04T12:11:16.284Z,11.95
2018-09-04T12:13:45.216Z,12.73
2018-09-04T12:16:20.822Z,11.73
2018-09-04T12:18:50.834Z,13.30
2018-09-04T12:21:19.899Z,12.90
2018-09-04T12:23:49.832Z,12.03
2018-09-04T12:26:18.809Z,12.03
2018-09-04T12:28:47.879Z,11.25
2018-09-04T12:31:17.082Z,11.53
2018-09-04T12:33:46.986Z,11.10
2018-09-04T12:36:15.939Z,11.50
2018-09-04T12:38:45.156Z,11.40
2018-09-04T12:41:16.184Z,11.43
2018-09-04T12:43:45.071Z,11.85
2018-09-04T12:46:14.197Z,12.00
2018-09-04T12:48:50.013Z,11.80
2018-09-04T12:51:19.257Z,11.75
2018-09-04T12:53:48.326Z,12.45
2018-09-04T12:56:17.712Z,11.97
2018-09-04T12:58:46.635Z,12.47
2018-09-04T13:01:15.819Z,12.15
2018-09-04T13:03:44.771Z,11.88
2018-09-04T13:06:13.890Z,12.60
2018-09-04T13:08:43.151Z,11.90
2018-09-04T13:11:12.279Z,11.83
2018-09-04T13:13:41.478Z,10.45
2018-09-04T13:16:10.876Z,10.43
2018-09-04T13:18:40.048Z,11.10
2018-09-04T13:21:09.134Z,11.28
2018-09-04T13:23:38.222Z,10.95
2018-09-04T13:26:07.237Z,10.98
2018-09-04T13:28:37.519Z,11.15
2018-09-04T13:31:06.781Z,10.48
2018-09-04T13:33:35.747Z,11.10
2018-09-04T13:36:04.726Z,11.15
2018-09-04T13:38:33.804Z,10.80
2018-09-04T13:41:08.716Z,10.68
2018-09-04T13:43:39.167Z,11.45
2018-09-04T13:46:08.316Z,10.82
2018-09-04T13:48:37.449Z,10.72
2018-09-04T13:51:06.605Z,10.90
2018-09-04T13:53:35.742Z,11.90
2018-09-04T13:56:04.823Z,11.43
2018-09-04T13:58:33.891Z,10.63
2018-09-04T14:01:02.929Z,11.60
2018-09-04T14:03:31.929Z,10.98
2018-09-04T14:06:00.941Z,11.45
2018-09-04T14:08:30.030Z,12.07
2018-09-04T14:10:59.003Z,11.95
2018-09-04T14:13:27.953Z,11.20
2018-09-04T14:15:58.470Z,11.57
2018-09-04T14:18:27.400Z,10.98
2018-09-04T14:21:02.698Z,11.85
2018-09-04T14:23:31.641Z,11.50
2018-09-04T14:26:00.557Z,11.78
2018-09-04T14:28:44.459Z,11.05
2018-09-04T14:30:58.575Z,10.75
2018-09-04T14:33:27.656Z,10.85
2018-09-04T14:35:56.636Z,11.18
2018-09-04T14:38:25.656Z,12.18
2018-09-04T14:40:54.692Z,11.48
2018-09-04T14:43:23.784Z,11.08
2018-09-04T14:45:52.843Z,11.30
2018-09-04T14:48:21.936Z,10.90
2018-09-04T14:50:50.838Z,11.28
2018-09-04T14:53:19.812Z,11.83
2018-09-04T14:55:48.784Z,11.12
2018-09-04T14:58:18.113Z,11.33
2018-09-04T15:00:47.125Z,11.53
2018-09-04T15:03:16.209Z,11.38
2018-09-04T15:05:45.361Z,12.40
2018-09-04T15:08:15.360Z,12.23
2018-09-04T15:10:44.295Z,12.40
2018-09-04T15:13:13.231Z,11.05
2018-09-04T15:15:42.203Z,12.15
2018-09-04T15:18:11.181Z,11.35
2018-09-04T15:20:40.990Z,11.73
2018-09-04T15:23:09.819Z,12.05
2018-09-04T15:25:38.886Z,11.90
2018-09-04T15:28:17.313Z,12.93
2018-09-04T15:30:46.146Z,12.58
2018-09-04T15:33:14.993Z,13.48
2018-09-04T15:35:43.811Z,13.22
2018-09-04T15:38:13.602Z,13.88
2018-09-04T15:40:42.590Z,13.62
2018-09-04T15:43:11.423Z,13.10
2018-09-04T15:45:40.351Z,12.80
2018-09-04T15:48:09.212Z,12.98
2018-09-04T15:50:38.115Z,12.68
2018-09-04T15:53:07.020Z,13.95
2018-09-04T15:55:36.101Z,13.93
2018-09-04T15:58:04.937Z,14.65
2018-09-04T16:00:40.009Z,14.18
2018-09-04T16:03:08.842Z,14.80
2018-09-04T16:05:37.621Z,14.95
2018-09-04T16:08:06.532Z,14.03
2018-09-04T16:10:35.451Z,14.68
2018-09-04T16:13:04.291Z,14.55
2018-09-04T16:15:33.188Z,13.65
2018-09-04T16:18:01.949Z,14.20
2018-09-04T16:20:30.880Z,13.62
2018-09-04T16:22:59.716Z,14.55
2018-09-04T16:25:28.578Z,13.43
2018-09-04T16:27:57.451Z,13.83
2018-09-04T16:30:26.336Z,14.93
2018-09-04T16:32:55.172Z,15.15
2018-09-04T16:35:24.078Z,14.55
2018-09-04T16:37:52.898Z,16.27
2018-09-04T16:40:21.762Z,15.72
2018-09-04T16:42:50.604Z,16.57
2018-09-04T16:45:19.515Z,15.30
2018-09-04T16:47:48.393Z,15.65
2018-09-04T16:50:17.310Z,16.77
2018-09-04T16:52:46.211Z,16.55
2018-09-04T16:55:15.109Z,16.15
2018-09-04T16:57:44.018Z,16.62
2018-09-04T17:00:12.879Z,15.75
2018-09-04T17:02:41.778Z,13.72
2018-09-04T17:05:10.562Z,14.50
2018-09-04T17:07:39.488Z,14.55
2018-09-04T17:10:08.312Z,14.43
2018-09-04T17:12:37.193Z,13.20
2018-09-04T17:15:06.075Z,12.43
2018-09-04T17:17:34.931Z,12.70
2018-09-04T17:20:04.000Z,12.97
2018-09-04T17:22:32.880Z,12.83
2018-09-04T17:25:01.682Z,12.63
2018-09-04T17:27:30.583Z,12.47
2018-09-04T17:29:59.410Z,12.87
2018-09-04T17:32:28.321Z,13.37
2018-09-04T17:34:57.175Z,12.67
2018-09-04T17:37:26.041Z,13.37
2018-09-04T17:39:54.955Z,15.83
2018-09-04T17:42:23.888Z,16.93
2018-09-04T17:44:52.717Z,16.87
2018-09-04T17:47:21.575Z,17.67
2018-09-04T17:49:50.428Z,17.87
2018-09-04T17:52:19.320Z,17.87
2018-09-04T17:54:48.181Z,18.00
2018-09-04T17:57:17.038Z,18.73
2018-09-04T17:59:45.853Z,17.37
2018-09-04T18:02:14.748Z,18.73
2018-09-04T18:04:43.546Z,18.07
2018-09-04T18:07:12.477Z,17.97
2018-09-04T18:09:41.336Z,18.30
2018-09-04T18:12:10.180Z,17.37
2018-09-04T18:14:39.036Z,18.17
2018-09-04T18:17:08.346Z,18.27
2018-09-04T18:19:37.208Z,18.37
2018-09-04T18:22:06.068Z,16.80
2018-09-04T18:24:35.227Z,17.30
2018-09-04T18:27:04.131Z,17.67
2018-09-04T18:29:32.977Z,18.30
2018-09-04T18:32:01.918Z,18.10
2018-09-04T18:34:30.742Z,17.40
2018-09-04T18:36:59.693Z,16.73
2018-09-04T18:39:28.603Z,17.03
2018-09-04T18:41:57.513Z,17.53
2018-09-04T18:44:26.410Z,17.80
2018-09-04T18:46:55.321Z,16.90
2018-09-04T18:49:24.149Z,17.47
2018-09-04T18:51:53.038Z,18.23
2018-09-04T18:54:21.869Z,17.50
2018-09-04T18:56:50.670Z,17.37
2018-09-04T18:59:19.613Z,17.17
2018-09-04T19:01:48.414Z,17.73
2018-09-04T19:04:17.289Z,18.40
2018-09-04T19:06:46.389Z,17.53
2018-09-04T19:09:15.242Z,17.80
2018-09-04T19:11:44.042Z,18.57
2018-09-04T19:14:12.963Z,17.07
2018-09-04T19:16:41.837Z,18.70
2018-09-04T19:19:10.689Z,19.00
2018-09-04T19:21:39.503Z,18.43
2018-09-04T19:24:08.400Z,17.93
2018-09-04T19:26:37.201Z,18.33
2018-09-04T19:29:06.281Z,19.07
2018-09-04T19:31:35.136Z,18.53
2018-09-04T19:34:04.059Z,19.03
2018-09-04T19:36:32.910Z,17.33
2018-09-04T19:39:01.752Z,17.70
2018-09-04T19:41:30.572Z,18.57
2018-09-04T19:43:59.431Z,18.57
2018-09-04T19:46:28.279Z,18.13
2018-09-04T19:48:57.231Z,18.17
2018-09-04T19:51:26.076Z,18.40
2018-09-04T19:53:54.940Z,19.50
2018-09-04T19:56:23.823Z,18.20
2018-09-04T19:58:52.893Z,20.50
2018-09-04T20:01:21.868Z,20.50
2018-09-04T20:03:50.765Z,20.17
2018-09-04T20:06:19.630Z,23.27
2018-09-04T20:08:48.466Z,23.60
2018-09-04T20:11:17.293Z,21.73
2018-09-04T20:13:46.176Z,23.87
2018-09-04T20:16:42.926Z,23.23
2018-09-04T20:19:11.847Z,24.37
2018-09-04T20:21:40.768Z,24.20
2018-09-04T20:24:09.653Z,24.43
2018-09-04T20:26:38.500Z,25.37
2018-09-04T20:29:07.381Z,24.67
2018-09-04T20:31:36.237Z,25.80
2018-09-04T20:34:05.123Z,24.67
2018-09-04T20:36:33.946Z,24.07
2018-09-04T20:39:02.896Z,26.03
2018-09-04T20:41:31.751Z,26.20
2018-09-04T20:44:00.617Z,28.47
2018-09-04T20:46:29.487Z,30.17
2018-09-04T20:48:58.449Z,29.60
2018-09-04T20:51:27.300Z,30.10
2018-09-04T20:53:56.132Z,29.90
2018-09-04T20:56:25.619Z,30.17
2018-09-04T20:59:05.501Z,30.83
2018-09-04T21:01:45.379Z,29.60
2018-09-04T21:04:25.421Z,31.63
2018-09-04T21:06:54.407Z,31.63
2018-09-04T21:09:34.508Z,31.63
2018-09-04T21:12:03.398Z,30.00
2018-09-04T21:14:32.276Z,31.80
2018-09-04T21:17:01.112Z,30.83
2018-09-04T21:19:30.075Z,31.23
2018-09-04T21:21:58.875Z,32.43
2018-09-04T21:24:27.735Z,32.53
2018-09-04T21:26:56.848Z,31.17
2018-09-04T21:29:25.702Z,32.83
2018-09-04T21:31:54.538Z,34.83
2018-09-04T21:34:23.346Z,34.17
2018-09-04T21:36:52.120Z,34.60
2018-09-04T21:39:20.955Z,34.30
2018-09-04T21:41:49.745Z,34.83
2018-09-04T21:44:18.609Z,33.07
2018-09-04T21:46:47.493Z,34.37
2018-09-04T21:49:16.775Z,32.83
2018-09-04T21:51:45.608Z,33.20
2018-09-04T21:54:14.407Z,36.20
2018-09-04T21:56:43.276Z,33.93
2018-09-04T21:59:12.080Z,34.50
2018-09-04T22:01:40.905Z,35.53
2018-09-04T22:04:09.706Z,35.20
2018-09-04T22:06:38.616Z,37.13
2018-09-04T22:09:07.920Z,36.80
2018-09-04T22:11:36.768Z,38.53
2018-09-04T22:14:05.710Z,37.10
2018-09-04T22:16:34.617Z,39.77
2018-09-04T22:19:03.440Z,41.90
2018-09-04T22:21:32.316Z,42.10
2018-09-04T22:24:01.134Z,40.60
2018-09-04T22:26:29.961Z,40.47
2018-09-04T22:28:58.822Z,40.40
2018-09-04T22:31:27.680Z,42.80
2018-09-04T22:33:56.479Z,43.77
2018-09-04T22:36:25.357Z,44.80
2018-09-04T22:38:54.130Z,46.20
2018-09-04T22:41:22.935Z,43.47
2018-09-04T22:43:51.763Z,45.20
2018-09-04T22:46:20.538Z,46.73
2018-09-04T22:48:49.398Z,42.93
2018-09-04T22:51:23.757Z,42.33
2018-09-04T22:53:52.542Z,44.83
2018-09-04T22:56:21.378Z,45.23
2018-09-04T22:58:50.196Z,42.13
2018-09-04T23:01:19.035Z,43.27
2018-09-04T23:03:47.932Z,38.00
2018-09-04T23:06:16.765Z,37.03
2018-09-04T23:08:45.618Z,38.03
2018-09-04T23:11:14.446Z,37.03
2018-09-04T23:13:43.327Z,36.97
2018-09-04T23:16:12.176Z,36.73
2018-09-04T23:18:41.002Z,38.40
2018-09-04T23:21:09.830Z,38.17
2018-09-04T23:23:38.640Z,41.83
2018-09-04T23:26:07.512Z,40.73
2018-09-04T23:28:36.390Z,42.07
2018-09-04T23:31:05.252Z,40.77
2018-09-04T23:33:34.670Z,39.97
2018-09-04T23:36:03.560Z,39.30
2018-09-04T23:38:32.371Z,40.37
2018-09-04T23:41:01.180Z,40.53
2018-09-04T23:43:29.979Z,40.73
2018-09-04T23:46:02.756Z,36.30
2018-09-04T23:48:31.580Z,37.73
2018-09-04T23:51:01.670Z,40.07
2018-09-04T23:53:30.507Z,39.50
2018-09-04T23:55:59.348Z,40.27
2018-09-04T23:58:28.175Z,39.23
